createdAt,value
2016-06-02T00:00:41.707Z,0
2016-06-02T00:01:41.694Z,0
2016-06-02T00:02:41.682Z,0
2016-06-02T00:03:41.652Z,0
2016-06-02T00:04:41.640Z,0
2016-06-02T00:05:41.642Z,0
2016-06-02T00:06:41.457Z,0
2016-06-02T00:07:41.601Z,0
2016-06-02T00:08:41.432Z,0
2016-06-02T00:09:41.107Z,0
2016-06-02T00:10:42.203Z,0
2016-06-02T00:11:41.533Z,0
2016-06-02T00:12:41.506Z,0
2016-06-02T00:13:41.336Z,0
2016-06-02T00:14:41.339Z,0
2016-06-02T00:15:41.450Z,0
2016-06-02T00:16:41.437Z,0
2016-06-02T00:17:41.425Z,0
2016-06-02T00:18:41.397Z,0
2016-06-02T00:19:41.383Z,0
2016-06-02T00:20:41.214Z,0
2016-06-02T00:21:41.342Z,0
2016-06-02T00:22:41.172Z,0
2016-06-02T00:23:41.316Z,0
2016-06-02T00:24:41.413Z,0
2016-06-02T00:25:41.305Z,0
2016-06-02T00:26:41.261Z,0
2016-06-02T00:27:41.092Z,0
2016-06-02T00:28:41.235Z,0
2016-06-02T00:29:41.208Z,0
2016-06-02T00:30:41.210Z,0
2016-06-02T00:31:41.165Z,0
2016-06-02T00:32:41.012Z,0
2016-06-02T00:33:40.983Z,0
2016-06-02T00:34:41.127Z,0
2016-06-02T00:35:41.098Z,0
2016-06-02T00:36:40.929Z,0
2016-06-02T00:37:41.073Z,0
2016-06-02T00:38:41.060Z,0
2016-06-02T00:39:41.109Z,0
2016-06-02T00:40:41.034Z,0
2016-06-02T00:41:40.989Z,0
2016-06-02T00:42:40.976Z,0
2016-06-02T00:43:40.964Z,0
2016-06-02T00:44:40.935Z,0
2016-06-02T00:45:40.922Z,0
2016-06-02T00:46:40.768Z,0
2016-06-02T00:47:40.896Z,0
2016-06-02T00:48:40.867Z,0
2016-06-02T00:49:40.917Z,0
2016-06-02T00:50:40.842Z,0
2016-06-02T00:51:40.814Z,0
2016-06-02T00:52:40.800Z,0
2016-06-02T00:53:40.787Z,0
2016-06-02T00:54:40.634Z,0
2016-06-02T00:55:41.589Z,0
2016-06-02T00:56:40.592Z,0
2016-06-02T00:57:40.719Z,0
2016-06-02T00:58:40.550Z,0
2016-06-02T00:59:40.678Z,0
2016-06-02T01:00:40.666Z,0
2016-06-02T01:01:40.652Z,0
2016-06-02T01:02:40.624Z,0
2016-06-02T01:03:40.455Z,0
2016-06-02T01:04:40.598Z,0
2016-06-02T01:05:40.585Z,0
2016-06-02T01:06:40.401Z,0
2016-06-02T01:07:40.543Z,0
2016-06-02T01:08:40.218Z,0
2016-06-02T01:09:40.987Z,0
2016-06-02T01:10:41.051Z,0
2016-06-02T01:11:40.492Z,0
2016-06-02T01:12:40.307Z,0
2016-06-02T01:13:40.435Z,0
2016-06-02T01:14:40.423Z,0
2016-06-02T01:15:40.409Z,0
2016-06-02T01:16:40.381Z,0
2016-06-02T01:17:40.368Z,0
2016-06-02T01:18:40.339Z,0
2016-06-02T01:19:40.326Z,0
2016-06-02T01:20:40.314Z,0
2016-06-02T01:21:40.300Z,0
2016-06-02T01:22:40.272Z,0
2016-06-02T01:23:40.103Z,0
2016-06-02T01:24:40.356Z,0
2016-06-02T01:25:40.936Z,0
2016-06-02T01:26:40.205Z,0
2016-06-02T01:27:40.192Z,0
2016-06-02T01:28:40.022Z,0
2016-06-02T01:29:40.150Z,0
2016-06-02T01:30:40.137Z,0
2016-06-02T01:31:40.124Z,0
2016-06-02T01:32:39.939Z,0
2016-06-02T01:33:39.942Z,0
2016-06-02T01:34:40.069Z,0
2016-06-02T01:35:40.057Z,0
2016-06-02T01:36:40.028Z,0
2016-06-02T01:37:39.702Z,0
2016-06-02T01:38:39.846Z,0
2016-06-02T01:39:41.068Z,0
2016-06-02T01:40:40.196Z,0
2016-06-02T01:41:39.807Z,0
2016-06-02T01:42:39.919Z,0
2016-06-02T01:43:39.907Z,0
2016-06-02T01:44:39.893Z,0
2016-06-02T01:45:39.881Z,0
2016-06-02T01:46:39.554Z,0
2016-06-02T01:47:39.839Z,0
2016-06-02T01:48:39.514Z,0
2016-06-02T01:49:39.797Z,0
2016-06-02T01:50:39.847Z,0
2016-06-02T01:51:39.772Z,0
2016-06-02T01:52:39.603Z,0
2016-06-02T01:53:39.730Z,0
2016-06-02T01:54:39.592Z,0
2016-06-02T01:55:39.813Z,0
2016-06-02T01:56:39.520Z,0
2016-06-02T01:57:39.677Z,0
2016-06-02T01:58:39.650Z,0
2016-06-02T01:59:39.636Z,0
2016-06-02T02:00:39.608Z,0
2016-06-02T02:01:39.438Z,0
2016-06-02T02:02:40.019Z,0
2016-06-02T02:03:39.569Z,0
2016-06-02T02:04:39.385Z,0
2016-06-02T02:05:39.527Z,0
2016-06-02T02:06:39.499Z,0
2016-06-02T02:07:39.485Z,0
2016-06-02T02:08:39.474Z,0
2016-06-02T02:09:39.164Z,0
2016-06-02T02:10:39.932Z,0
2016-06-02T02:11:39.419Z,0
2016-06-02T02:12:39.266Z,0
2016-06-02T02:13:39.377Z,0
2016-06-02T02:14:39.364Z,0
2016-06-02T02:15:39.367Z,0
2016-06-02T02:16:39.182Z,0
2016-06-02T02:17:39.170Z,0
2016-06-02T02:18:39.297Z,0
2016-06-02T02:19:39.284Z,0
2016-06-02T02:20:39.270Z,0
2016-06-02T02:21:39.259Z,0
2016-06-02T02:22:39.073Z,0
2016-06-02T02:23:39.217Z,0
2016-06-02T02:24:39.391Z,0
2016-06-02T02:25:39.598Z,0
2016-06-02T02:26:39.005Z,0
2016-06-02T02:27:39.133Z,0
2016-06-02T02:28:39.122Z,0
2016-06-02T02:29:38.952Z,0
2016-06-02T02:30:39.094Z,0
2016-06-02T02:31:38.925Z,0
2016-06-02T02:32:39.053Z,0
2016-06-02T02:33:39.041Z,0
2016-06-02T02:34:39.027Z,0
2016-06-02T02:35:38.999Z,0
2016-06-02T02:36:38.986Z,0
2016-06-02T02:37:38.974Z,0
2016-06-02T02:38:38.804Z,0
2016-06-02T02:39:38.946Z,0
2016-06-02T02:40:39.716Z,0
2016-06-02T02:41:38.906Z,0
2016-06-02T02:42:38.877Z,0
2016-06-02T02:43:38.879Z,0
2016-06-02T02:44:38.851Z,0
2016-06-02T02:45:38.823Z,0
2016-06-02T02:46:38.653Z,0
2016-06-02T02:47:38.641Z,0
2016-06-02T02:48:38.768Z,0
2016-06-02T02:49:38.614Z,0
2016-06-02T02:50:38.743Z,0
2016-06-02T02:51:38.573Z,0
2016-06-02T02:52:38.545Z,0
2016-06-02T02:53:38.688Z,0
2016-06-02T02:54:38.550Z,0
2016-06-02T02:55:39.022Z,0
2016-06-02T02:56:38.493Z,0
2016-06-02T02:57:38.464Z,0
2016-06-02T02:58:38.608Z,0
2016-06-02T02:59:38.595Z,0
2016-06-02T03:00:38.425Z,0
2016-06-02T03:01:38.553Z,0
2016-06-02T03:02:38.400Z,5
2016-06-02T03:03:38.512Z,5
2016-06-02T03:04:38.499Z,5
2016-06-02T03:05:38.173Z,5
2016-06-02T03:06:38.473Z,5
2016-06-02T03:07:38.444Z,5
2016-06-02T03:08:38.432Z,5
2016-06-02T03:09:38.763Z,5
2016-06-02T03:10:39.296Z,5
2016-06-02T03:11:38.377Z,5
2016-06-02T03:12:38.365Z,5
2016-06-02T03:13:38.336Z,5
2016-06-02T03:14:38.323Z,5
2016-06-02T03:15:38.294Z,5
2016-06-02T03:16:38.125Z,5
2016-06-02T03:17:38.268Z,10
2016-06-02T03:18:38.255Z,15
2016-06-02T03:19:38.226Z,10
2016-06-02T03:20:38.214Z,10
2016-06-02T03:21:38.201Z,15
2016-06-02T03:22:38.187Z,15
2016-06-02T03:23:38.159Z,15
2016-06-02T03:24:38.303Z,20
2016-06-02T03:25:38.227Z,25
2016-06-02T03:26:37.964Z,25
2016-06-02T03:27:38.108Z,30
2016-06-02T03:28:38.088Z,35
2016-06-02T03:29:38.100Z,35
2016-06-02T03:30:38.113Z,40
2016-06-02T03:31:38.125Z,40
2016-06-02T03:32:38.122Z,35
2016-06-02T03:33:38.118Z,35
2016-06-02T03:34:38.115Z,35
2016-06-02T03:35:38.096Z,40
2016-06-02T03:36:38.107Z,40
2016-06-02T03:37:38.088Z,40
2016-06-02T03:38:38.079Z,45
2016-06-02T03:39:37.912Z,45
2016-06-02T03:40:39.309Z,45
2016-06-02T03:41:38.034Z,45
2016-06-02T03:42:38.039Z,45
2016-06-02T03:43:37.980Z,50
2016-06-02T03:44:37.812Z,50
2016-06-02T03:45:37.816Z,50
2016-06-02T03:46:37.632Z,50
2016-06-02T03:47:37.949Z,55
2016-06-02T03:48:37.906Z,65
2016-06-02T03:49:37.893Z,60
2016-06-02T03:50:37.912Z,60
2016-06-02T03:51:37.708Z,70
2016-06-02T03:52:37.680Z,70
2016-06-02T03:53:37.827Z,70
2016-06-02T03:54:38.142Z,65
2016-06-02T03:55:38.552Z,65
2016-06-02T03:56:37.598Z,75
2016-06-02T03:57:37.759Z,85
2016-06-02T03:58:37.574Z,90
2016-06-02T03:59:37.717Z,95
2016-06-02T04:00:37.689Z,115
2016-06-02T04:01:37.519Z,105
2016-06-02T04:02:37.648Z,110
2016-06-02T04:03:37.478Z,110
2016-06-02T04:04:37.621Z,110
2016-06-02T04:05:37.452Z,105
2016-06-02T04:06:37.580Z,115
2016-06-02T04:07:37.583Z,145
2016-06-02T04:08:37.242Z,140
2016-06-02T04:09:37.525Z,130
2016-06-02T04:10:39.030Z,125
2016-06-02T04:11:37.343Z,135
2016-06-02T04:12:37.486Z,130
2016-06-02T04:13:37.457Z,145
2016-06-02T04:14:37.444Z,150
2016-06-02T04:15:37.432Z,145
2016-06-02T04:16:37.403Z,150
2016-06-02T04:17:37.234Z,190
2016-06-02T04:18:37.221Z,200
2016-06-02T04:19:37.349Z,215
2016-06-02T04:20:37.335Z,195
2016-06-02T04:21:37.323Z,220
2016-06-02T04:22:37.294Z,255
2016-06-02T04:23:37.282Z,225
2016-06-02T04:24:37.284Z,215
2016-06-02T04:25:37.146Z,215
2016-06-02T04:26:37.227Z,230
2016-06-02T04:27:37.198Z,255
2016-06-02T04:28:37.045Z,245
2016-06-02T04:29:37.173Z,235
2016-06-02T04:30:37.004Z,235
2016-06-02T04:31:37.132Z,235
2016-06-02T04:32:36.962Z,240
2016-06-02T04:33:37.105Z,270
2016-06-02T04:34:37.092Z,255
2016-06-02T04:35:37.048Z,265
2016-06-02T04:36:37.050Z,290
2016-06-02T04:37:37.022Z,265
2016-06-02T04:38:37.009Z,270
2016-06-02T04:39:37.215Z,260
2016-06-02T04:40:37.686Z,265
2016-06-02T04:41:36.955Z,270
2016-06-02T04:42:36.942Z,265
2016-06-02T04:43:36.945Z,270
2016-06-02T04:44:36.900Z,280
2016-06-02T04:45:36.888Z,290
2016-06-02T04:46:36.718Z,285
2016-06-02T04:47:36.847Z,280
2016-06-02T04:48:36.818Z,280
2016-06-02T04:49:36.664Z,285
2016-06-02T04:50:36.791Z,285
2016-06-02T04:51:36.794Z,285
2016-06-02T04:52:36.765Z,285
2016-06-02T04:53:36.752Z,285
2016-06-02T04:54:36.849Z,285
2016-06-02T04:55:37.524Z,295
2016-06-02T04:56:36.526Z,295
2016-06-02T04:57:36.513Z,300
2016-06-02T04:58:36.345Z,305
2016-06-02T04:59:36.628Z,310
2016-06-02T05:00:36.615Z,310
2016-06-02T05:01:36.603Z,315
2016-06-02T05:02:36.418Z,315
2016-06-02T05:03:36.390Z,320
2016-06-02T05:04:36.532Z,320
2016-06-02T05:05:36.364Z,325
2016-06-02T05:06:36.350Z,330
2016-06-02T05:07:36.337Z,335
2016-06-02T05:08:36.464Z,340
2016-06-02T05:09:36.952Z,345
2016-06-02T05:10:36.142Z,355
2016-06-02T05:11:36.411Z,355
2016-06-02T05:12:36.241Z,360
2016-06-02T05:13:36.228Z,370
2016-06-02T05:14:36.356Z,365
2016-06-02T05:15:36.344Z,370
2016-06-02T05:16:36.174Z,370
2016-06-02T05:17:36.302Z,380
2016-06-02T05:18:36.132Z,370
2016-06-02T05:19:36.120Z,375
2016-06-02T05:20:36.091Z,375
2016-06-02T05:21:36.234Z,380
2016-06-02T05:22:36.222Z,380
2016-06-02T05:23:36.037Z,390
2016-06-02T05:24:54.479Z,395
2016-06-02T05:25:36.870Z,400
2016-06-02T05:26:36.404Z,420
2016-06-02T05:27:36.454Z,450
2016-06-02T05:28:36.285Z,465
2016-06-02T05:29:36.224Z,475
2016-06-02T05:30:36.071Z,475
2016-06-02T05:31:36.059Z,470
2016-06-02T05:32:36.045Z,475
2016-06-02T05:33:35.876Z,480
2016-06-02T05:34:36.020Z,485
2016-06-02T05:35:35.991Z,490
2016-06-02T05:36:35.978Z,490
2016-06-02T05:37:35.950Z,475
2016-06-02T05:38:35.781Z,455
2016-06-02T05:39:36.267Z,460
2016-06-02T05:40:35.754Z,455
2016-06-02T05:41:35.882Z,455
2016-06-02T05:42:35.869Z,450
2016-06-02T05:43:35.544Z,450
2016-06-02T05:44:35.686Z,455
2016-06-02T05:45:35.830Z,465
2016-06-02T05:46:35.801Z,475
2016-06-02T05:47:35.492Z,485
2016-06-02T05:48:35.775Z,490
2016-06-02T05:49:35.747Z,510
2016-06-02T05:50:35.594Z,510
2016-06-02T05:51:35.721Z,495
2016-06-02T05:52:35.708Z,490
2016-06-02T05:53:35.679Z,490
2016-06-02T05:54:36.511Z,500
2016-06-02T05:55:36.044Z,490
2016-06-02T05:56:35.501Z,495
2016-06-02T05:57:35.643Z,495
2016-06-02T05:58:35.631Z,500
2016-06-02T05:59:35.602Z,500
2016-06-02T06:00:35.433Z,505
2016-06-02T06:01:35.435Z,505
2016-06-02T06:02:35.392Z,515
2016-06-02T06:03:35.535Z,500
2016-06-02T06:04:35.537Z,545
2016-06-02T06:05:35.509Z,535
2016-06-02T06:06:35.495Z,515
2016-06-02T06:07:35.484Z,515
2016-06-02T06:08:35.579Z,520
2016-06-02T06:09:35.457Z,515
2016-06-02T06:10:35.289Z,515
2016-06-02T06:11:35.416Z,520
2016-06-02T06:12:35.403Z,520
2016-06-02T06:13:35.375Z,515
2016-06-02T06:14:35.361Z,520
2016-06-02T06:15:35.208Z,545
2016-06-02T06:16:35.180Z,815
2016-06-02T06:17:35.322Z,1155
2016-06-02T06:18:35.325Z,1280
2016-06-02T06:19:35.297Z,1280
2016-06-02T06:20:35.269Z,1290
2016-06-02T06:21:35.272Z,1305
2016-06-02T06:22:35.101Z,1315
2016-06-02T06:23:35.230Z,1325
2016-06-02T06:24:35.123Z,1345
2016-06-02T06:25:35.219Z,1380
2016-06-02T06:26:35.191Z,1400
2016-06-02T06:27:35.178Z,1410
2016-06-02T06:28:35.165Z,1420
2016-06-02T06:29:35.152Z,1450
2016-06-02T06:30:34.983Z,1445
2016-06-02T06:31:34.970Z,1455
2016-06-02T06:32:35.129Z,1480
2016-06-02T06:33:35.101Z,1480
2016-06-02T06:34:35.087Z,1435
2016-06-02T06:35:34.934Z,1405
2016-06-02T06:36:35.077Z,1445
2016-06-02T06:37:35.080Z,1480
2016-06-02T06:38:34.910Z,1460
2016-06-02T06:39:35.820Z,1430
2016-06-02T06:40:35.869Z,1420
2016-06-02T06:41:35.012Z,1430
2016-06-02T06:42:35.000Z,1435
2016-06-02T06:43:34.970Z,1420
2016-06-02T06:44:34.817Z,1405
2016-06-02T06:45:34.897Z,1405
2016-06-02T06:46:34.792Z,1405
2016-06-02T06:47:34.934Z,1325
2016-06-02T06:48:34.922Z,1330
2016-06-02T06:49:34.752Z,1270
2016-06-02T06:50:34.896Z,1195
2016-06-02T06:51:34.883Z,1080
2016-06-02T06:52:34.869Z,1040
2016-06-02T06:53:34.982Z,1005
2016-06-02T06:54:35.266Z,1010
2016-06-02T06:55:35.050Z,975
2016-06-02T06:56:34.833Z,915
2016-06-02T06:57:34.836Z,860
2016-06-02T06:58:34.807Z,840
2016-06-02T06:59:34.795Z,835
2016-06-02T07:00:34.829Z,845
2016-06-02T07:01:34.832Z,840
2016-06-02T07:02:34.615Z,870
2016-06-02T07:03:34.602Z,1205
2016-06-02T07:04:34.746Z,1930
2016-06-02T07:05:34.576Z,1290
2016-06-02T07:06:34.720Z,660
2016-06-02T07:07:34.722Z,1240
2016-06-02T07:08:34.709Z,2185
2016-06-02T07:09:34.697Z,2285
2016-06-02T07:10:34.684Z,2260
2016-06-02T07:11:34.670Z,1750
2016-06-02T07:12:34.674Z,1880
2016-06-02T07:13:34.661Z,2185
2016-06-02T07:14:34.647Z,2195
2016-06-02T07:15:34.620Z,2115
2016-06-02T07:16:34.637Z,2060
2016-06-02T07:17:34.328Z,1970
2016-06-02T07:18:34.800Z,1925
2016-06-02T07:19:34.662Z,1865
2016-06-02T07:20:34.632Z,1875
2016-06-02T07:21:34.636Z,1930
2016-06-02T07:22:34.561Z,1965
2016-06-02T07:23:34.594Z,2030
2016-06-02T07:24:34.394Z,820
2016-06-02T07:25:34.569Z,1230
2016-06-02T07:26:34.524Z,1945
2016-06-02T07:27:34.355Z,1445
2016-06-02T07:28:34.342Z,1895
2016-06-02T07:29:34.501Z,2030
2016-06-02T07:30:34.488Z,1720
2016-06-02T07:31:34.491Z,2125
2016-06-02T07:32:34.477Z,1845
2016-06-02T07:33:34.183Z,2160
2016-06-02T07:34:34.452Z,2225
2016-06-02T07:35:34.439Z,2190
2016-06-02T07:36:34.441Z,2235
2016-06-02T07:37:34.273Z,2325
2016-06-02T07:38:34.431Z,2435
2016-06-02T07:39:34.387Z,2525
2016-06-02T07:40:34.406Z,2500
2016-06-02T07:41:34.252Z,2245
2016-06-02T07:42:34.239Z,1090
2016-06-02T07:43:34.382Z,2390
2016-06-02T07:44:34.369Z,2165
2016-06-02T07:45:34.372Z,2460
2016-06-02T07:46:34.359Z,2550
2016-06-02T07:47:34.346Z,2485
2016-06-02T07:48:34.193Z,2430
2016-06-02T07:49:34.336Z,2565
2016-06-02T07:50:34.323Z,2480
2016-06-02T07:51:34.169Z,1200
2016-06-02T07:52:34.313Z,1295
2016-06-02T07:53:34.425Z,1410
2016-06-02T07:54:35.006Z,1700
2016-06-02T07:55:35.133Z,1170
2016-06-02T07:56:34.292Z,940
2016-06-02T07:57:34.294Z,845
2016-06-02T07:58:35.360Z,795
2016-06-02T07:59:34.410Z,790
2016-06-02T08:00:34.116Z,865
2016-06-02T08:01:34.244Z,1040
2016-06-02T08:02:34.105Z,1085
2016-06-02T08:03:34.217Z,1075
2016-06-02T08:04:34.454Z,1080
2016-06-02T08:05:34.223Z,1145
2016-06-02T08:06:33.928Z,1265
2016-06-02T08:07:34.197Z,1780
2016-06-02T08:08:34.199Z,2610
2016-06-02T08:09:34.326Z,2725
2016-06-02T08:10:34.815Z,2830
2016-06-02T08:11:34.176Z,2740
2016-06-02T08:12:34.178Z,2365
2016-06-02T08:13:34.151Z,1955
2016-06-02T08:14:34.137Z,1415
2016-06-02T08:15:34.139Z,2645
2016-06-02T08:16:34.127Z,2675
2016-06-02T08:17:34.114Z,1855
2016-06-02T08:18:33.945Z,1320
2016-06-02T08:19:34.103Z,1265
2016-06-02T08:20:34.092Z,1265
2016-06-02T08:21:33.937Z,1285
2016-06-02T08:22:34.097Z,1255
2016-06-02T08:23:33.911Z,1215
2016-06-02T08:24:33.758Z,1185
2016-06-02T08:25:34.886Z,1175
2016-06-02T08:26:33.889Z,1125
2016-06-02T08:27:34.032Z,1095
2016-06-02T08:28:33.894Z,1110
2016-06-02T08:29:33.880Z,1180
2016-06-02T08:30:34.008Z,1810
2016-06-02T08:31:34.011Z,1345
2016-06-02T08:32:33.874Z,1250
2016-06-02T08:33:33.985Z,1230
2016-06-02T08:34:33.972Z,1290
2016-06-02T08:35:33.975Z,1720
2016-06-02T08:36:33.963Z,1590
2016-06-02T08:37:33.793Z,1725
2016-06-02T08:38:33.795Z,1855
2016-06-02T08:39:33.939Z,1685
2016-06-02T08:40:34.707Z,1585
2016-06-02T08:41:33.928Z,1300
2016-06-02T08:42:33.775Z,1225
2016-06-02T08:43:33.778Z,1290
2016-06-02T08:44:33.905Z,1395
2016-06-02T08:45:33.892Z,1515
2016-06-02T08:46:33.879Z,3315
2016-06-02T08:47:33.867Z,2010
2016-06-02T08:48:33.853Z,2055
2016-06-02T08:49:33.700Z,1825
2016-06-02T08:50:33.687Z,1505
2016-06-02T08:51:33.861Z,1525
2016-06-02T08:52:33.834Z,1375
2016-06-02T08:53:33.711Z,1355
2016-06-02T08:54:34.183Z,1425
2016-06-02T08:55:33.685Z,1930
2016-06-02T08:56:33.797Z,1525
2016-06-02T08:57:33.783Z,1690
2016-06-02T08:58:33.771Z,2875
2016-06-02T08:59:33.821Z,1640
2016-06-02T09:00:33.777Z,2125
2016-06-02T09:01:33.608Z,1375
2016-06-02T09:02:33.751Z,1440
2016-06-02T09:03:33.582Z,1490
2016-06-02T09:04:33.740Z,1485
2016-06-02T09:05:33.588Z,1710
2016-06-02T09:06:33.715Z,1670
2016-06-02T09:07:33.749Z,1505
2016-06-02T09:08:33.705Z,1475
2016-06-02T09:09:33.691Z,1500
2016-06-02T09:10:33.507Z,1500
2016-06-02T09:11:33.369Z,1485
2016-06-02T09:12:33.356Z,1485
2016-06-02T09:13:33.655Z,1550
2016-06-02T09:14:33.486Z,1670
2016-06-02T09:15:33.333Z,1670
2016-06-02T09:16:33.648Z,1715
2016-06-02T09:17:33.620Z,1930
2016-06-02T09:18:33.606Z,1795
2016-06-02T09:19:33.609Z,1735
2016-06-02T09:20:33.612Z,1855
2016-06-02T09:21:33.598Z,1975
2016-06-02T09:22:33.587Z,1855
2016-06-02T09:23:33.573Z,1825
2016-06-02T09:24:33.545Z,2145
2016-06-02T09:25:33.391Z,2000
2016-06-02T09:26:33.565Z,1690
2016-06-02T09:27:33.553Z,1680
2016-06-02T09:28:33.556Z,2130
2016-06-02T09:29:33.386Z,1705
2016-06-02T09:30:33.373Z,1975
2016-06-02T09:31:33.500Z,1805
2016-06-02T09:32:33.503Z,1655
2016-06-02T09:33:33.506Z,1415
2016-06-02T09:34:33.337Z,1340
2016-06-02T09:35:33.340Z,1365
2016-06-02T09:36:33.468Z,1355
2016-06-02T09:37:33.314Z,1380
2016-06-02T09:38:33.473Z,1365
2016-06-02T09:39:33.304Z,1280
2016-06-02T09:40:38.681Z,1265
2016-06-02T09:41:33.138Z,1290
2016-06-02T09:42:33.296Z,1300
2016-06-02T09:43:33.268Z,1330
2016-06-02T09:44:33.410Z,1225
2016-06-02T09:45:33.398Z,1230
2016-06-02T09:46:33.244Z,1315
2016-06-02T09:47:33.388Z,1360
2016-06-02T09:48:33.375Z,1460
2016-06-02T09:49:33.206Z,1605
2016-06-02T09:50:33.990Z,1600
2016-06-02T09:51:33.336Z,1460
2016-06-02T09:52:33.339Z,1470
2016-06-02T09:53:33.356Z,1580
2016-06-02T09:54:33.579Z,1805
2016-06-02T09:55:34.206Z,2520
2016-06-02T09:56:33.303Z,1915
2016-06-02T09:57:33.164Z,1880
2016-06-02T09:58:33.167Z,1730
2016-06-02T09:59:33.123Z,1740
2016-06-02T10:00:33.283Z,1770
2016-06-02T10:01:33.113Z,1845
2016-06-02T10:02:33.256Z,1820
2016-06-02T10:03:33.087Z,1720
2016-06-02T10:04:33.246Z,1680
2016-06-02T10:05:33.217Z,1645
2016-06-02T10:06:32.908Z,1770
2016-06-02T10:07:33.066Z,1685
2016-06-02T10:08:33.288Z,1700
2016-06-02T10:09:33.259Z,1755
2016-06-02T10:10:33.200Z,1775
2016-06-02T10:11:33.015Z,1810
2016-06-02T10:12:32.860Z,1870
2016-06-02T10:13:33.004Z,1940
2016-06-02T10:14:33.148Z,1745
2016-06-02T10:15:33.135Z,1630
2016-06-02T10:16:33.137Z,1535
2016-06-02T10:17:33.812Z,1365
2016-06-02T10:18:33.017Z,1285
2016-06-02T10:19:33.052Z,1265
2016-06-02T10:20:33.336Z,1255
2016-06-02T10:21:33.104Z,1180
2016-06-02T10:22:33.107Z,1150
2016-06-02T10:23:32.923Z,1110
2016-06-02T10:24:33.018Z,1025
2016-06-02T10:25:34.959Z,940
2016-06-02T10:26:33.055Z,925
2016-06-02T10:27:33.043Z,975
2016-06-02T10:28:33.450Z,1035
2016-06-02T10:29:33.017Z,1075
2016-06-02T10:30:33.081Z,1095
2016-06-02T10:31:33.022Z,1060
2016-06-02T10:32:32.993Z,980
2016-06-02T10:33:32.980Z,975
2016-06-02T10:34:32.983Z,1045
2016-06-02T10:35:32.970Z,1145
2016-06-02T10:36:32.816Z,1240
2016-06-02T10:37:32.788Z,1280
2016-06-02T10:38:32.775Z,1315
2016-06-02T10:39:33.183Z,1330
2016-06-02T10:40:34.030Z,1335
2016-06-02T10:41:32.907Z,1280
2016-06-02T10:42:32.910Z,1350
2016-06-02T10:43:32.741Z,1485
2016-06-02T10:44:32.885Z,1665
2016-06-02T10:45:32.715Z,1970
2016-06-02T10:46:32.874Z,2235
2016-06-02T10:47:32.846Z,2450
2016-06-02T10:48:32.849Z,1730
2016-06-02T10:49:32.679Z,1495
2016-06-02T10:50:32.510Z,1360
2016-06-02T10:51:32.670Z,1245
2016-06-02T10:52:32.641Z,1175
2016-06-02T10:53:32.815Z,1165
2016-06-02T10:54:32.787Z,1305
2016-06-02T10:55:33.117Z,1305
2016-06-02T10:56:32.761Z,1440
2016-06-02T10:57:32.747Z,1520
2016-06-02T10:58:32.767Z,1535
2016-06-02T10:59:32.737Z,1605
2016-06-02T11:00:32.725Z,2305
2016-06-02T11:01:32.774Z,2600
2016-06-02T11:02:32.714Z,1110
2016-06-02T11:03:32.733Z,1030
2016-06-02T11:04:32.705Z,1040
2016-06-02T11:05:32.550Z,1070
2016-06-02T11:06:32.678Z,1100
2016-06-02T11:07:32.525Z,1090
2016-06-02T11:08:32.700Z,1090
2016-06-02T11:09:32.639Z,1085
2016-06-02T11:10:32.813Z,1100
2016-06-02T11:11:32.644Z,1155
2016-06-02T11:12:32.632Z,1230
2016-06-02T11:13:32.618Z,1340
2016-06-02T11:14:32.607Z,1435
2016-06-02T11:15:32.593Z,1555
2016-06-02T11:16:32.440Z,1365
2016-06-02T11:17:32.583Z,1355
2016-06-02T11:18:32.571Z,1415
2016-06-02T11:19:32.557Z,1565
2016-06-02T11:20:32.559Z,1425
2016-06-02T11:21:32.406Z,1500
2016-06-02T11:22:32.549Z,1710
2016-06-02T11:23:32.521Z,1830
2016-06-02T11:24:32.523Z,2280
2016-06-02T11:25:32.839Z,1545
2016-06-02T11:26:32.497Z,1320
2016-06-02T11:27:32.625Z,1215
2016-06-02T11:28:32.331Z,1270
2016-06-02T11:29:32.490Z,1375
2016-06-02T11:30:32.462Z,2820
2016-06-02T11:31:32.308Z,2925
2016-06-02T11:32:32.294Z,1645
2016-06-02T11:33:32.439Z,1895
2016-06-02T11:34:32.441Z,1600
2016-06-02T11:35:32.288Z,1550
2016-06-02T11:36:32.416Z,1570
2016-06-02T11:37:32.418Z,1625
2016-06-02T11:38:32.405Z,3405
2016-06-02T11:39:32.924Z,1895
2016-06-02T11:40:32.722Z,1235
2016-06-02T11:41:32.382Z,1250
2016-06-02T11:42:32.057Z,1145
2016-06-02T11:43:32.356Z,1080
2016-06-02T11:44:32.343Z,1060
2016-06-02T11:45:32.361Z,1080
2016-06-02T11:46:32.193Z,1180
2016-06-02T11:47:32.195Z,1420
2016-06-02T11:48:32.338Z,3505
2016-06-02T11:49:32.309Z,3285
2016-06-02T11:50:32.312Z,1790
2016-06-02T11:51:32.299Z,3530
2016-06-02T11:52:32.302Z,3665
2016-06-02T11:53:32.290Z,2985
2016-06-02T11:54:32.276Z,2150
2016-06-02T11:55:32.998Z,1905
2016-06-02T11:56:32.110Z,1920
2016-06-02T11:57:32.253Z,1955
2016-06-02T11:58:32.240Z,3555
2016-06-02T11:59:32.242Z,3520
2016-06-02T12:00:32.231Z,2445
2016-06-02T12:01:32.108Z,3070
2016-06-02T12:02:32.236Z,3665
2016-06-02T12:03:32.066Z,3725
2016-06-02T12:04:31.912Z,2650
2016-06-02T12:05:32.227Z,1710
2016-06-02T12:06:32.214Z,1675
2016-06-02T12:07:32.202Z,1610
2016-06-02T12:08:32.220Z,1640
2016-06-02T12:09:32.989Z,3490
2016-06-02T12:10:31.897Z,2070
2016-06-02T12:11:32.180Z,2010
2016-06-02T12:12:32.200Z,2900
2016-06-02T12:13:32.186Z,3470
2016-06-02T12:14:32.033Z,3550
2016-06-02T12:15:32.021Z,3105
2016-06-02T12:16:32.179Z,3730
2016-06-02T12:17:32.072Z,3905
2016-06-02T12:18:32.168Z,3435
2016-06-02T12:19:32.156Z,2445
2016-06-02T12:20:32.002Z,2025
2016-06-02T12:21:32.162Z,1825
2016-06-02T12:22:32.007Z,1730
2016-06-02T12:23:31.838Z,1730
2016-06-02T12:24:31.998Z,2240
2016-06-02T12:25:32.235Z,1840
2016-06-02T12:26:32.143Z,2170
2016-06-02T12:27:32.146Z,2185
2016-06-02T12:28:32.149Z,1645
2016-06-02T12:29:31.839Z,1320
2016-06-02T12:30:32.154Z,1285
2016-06-02T12:31:32.141Z,1300
2016-06-02T12:32:32.145Z,1360
2016-06-02T12:33:32.131Z,1530
2016-06-02T12:34:32.127Z,1800
2016-06-02T12:35:32.033Z,1400
2016-06-02T12:36:32.032Z,1440
2016-06-02T12:37:32.062Z,1515
2016-06-02T12:38:32.078Z,2970
2016-06-02T12:39:32.242Z,3145
2016-06-02T12:40:32.254Z,3295
2016-06-02T12:41:32.111Z,3320
2016-06-02T12:42:32.265Z,3290
2016-06-02T12:43:32.121Z,3410
2016-06-02T12:44:32.272Z,3420
2016-06-02T12:45:32.278Z,3500
2016-06-02T12:46:32.269Z,1720
2016-06-02T12:47:32.274Z,1605
2016-06-02T12:48:32.265Z,1765
2016-06-02T12:49:32.286Z,2855
2016-06-02T12:50:33.431Z,2045
2016-06-02T12:51:32.278Z,1465
2016-06-02T12:52:32.172Z,1535
2016-06-02T12:53:32.270Z,1270
2016-06-02T12:54:32.415Z,1315
2016-06-02T12:55:32.761Z,1410
2016-06-02T12:56:32.264Z,1565
2016-06-02T12:57:32.267Z,1740
2016-06-02T12:58:32.271Z,3555
2016-06-02T12:59:32.242Z,3500
2016-06-02T13:00:32.246Z,2005
2016-06-02T13:01:32.249Z,1775
2016-06-02T13:02:32.236Z,1240
2016-06-02T13:03:32.082Z,1430
2016-06-02T13:04:32.226Z,1805
2016-06-02T13:05:32.073Z,1590
2016-06-02T13:06:32.215Z,1645
2016-06-02T13:07:32.218Z,2180
2016-06-02T13:08:32.221Z,1735
2016-06-02T13:09:32.365Z,1340
2016-06-02T13:10:32.602Z,1185
2016-06-02T13:11:32.198Z,1095
2016-06-02T13:12:32.045Z,1120
2016-06-02T13:13:32.032Z,1190
2016-06-02T13:14:32.191Z,1250
2016-06-02T13:15:32.178Z,1335
2016-06-02T13:16:32.181Z,1435
2016-06-02T13:17:32.168Z,1520
2016-06-02T13:18:31.998Z,1680
2016-06-02T13:19:32.158Z,3075
2016-06-02T13:20:32.160Z,2595
2016-06-02T13:21:31.991Z,3110
2016-06-02T13:22:32.134Z,3800
2016-06-02T13:23:31.981Z,3275
2016-06-02T13:24:31.967Z,2235
2016-06-02T13:25:32.127Z,2050
2016-06-02T13:26:32.113Z,2740
2016-06-02T13:27:32.100Z,3625
2016-06-02T13:28:32.103Z,2065
2016-06-02T13:29:31.794Z,3400
2016-06-02T13:30:32.093Z,3480
2016-06-02T13:31:32.096Z,3330
2016-06-02T13:32:32.099Z,3315
2016-06-02T13:33:32.086Z,3340
2016-06-02T13:34:31.932Z,2180
2016-06-02T13:35:32.107Z,2250
2016-06-02T13:36:32.094Z,1885
2016-06-02T13:37:31.924Z,1870
2016-06-02T13:38:32.068Z,1925
2016-06-02T13:39:31.914Z,1995
2016-06-02T13:40:32.371Z,2080
2016-06-02T13:41:32.076Z,2250
2016-06-02T13:42:32.063Z,3845
2016-06-02T13:43:31.910Z,3295
2016-06-02T13:44:32.068Z,2530
2016-06-02T13:45:31.742Z,3595
2016-06-02T13:46:31.902Z,3665